Time;durP1;ratioP1;P1;durP2;ratioP2;P2;SDS_P1;SDS_P2;PMS_P1;PMS_P2;Temp;Humidity;BMP_temperature;BMP_pressure;BME280_temperature;BME280_humidity;BME280_pressure;Samples;Min_cycle;Max_cycle;Signal;HPM_P1;HPM_P2
2021/12/29 00:00:27;;;;;;;7.40;1.93;;;10.90;99.90;;;;;;5054128;28;20172;-70
2021/12/29 00:02:55;;;;;;;4.97;1.33;;;10.90;99.90;;;;;;5063351;28;20248;-70
2021/12/29 00:05:21;;;;;;;3.50;1.67;;;10.90;99.90;;;;;;5067163;28;20441;-70
2021/12/29 00:07:46;;;;;;;4.87;1.73;;;10.90;99.90;;;;;;5055321;28;20431;-70
2021/12/29 00:10:14;;;;;;;6.57;1.80;;;10.90;99.90;;;;;;5067440;28;20441;-71
2021/12/29 00:12:42;;;;;;;5.20;1.50;;;10.80;99.90;;;;;;5048673;28;20193;-70
2021/12/29 00:15:10;;;;;;;4.80;1.50;;;10.80;99.90;;;;;;5057356;28;20442;-70
2021/12/29 00:17:38;;;;;;;4.50;1.73;;;11.10;99.90;;;;;;5062932;28;20513;-70
2021/12/29 00:20:06;;;;;;;4.60;1.60;;;10.80;99.90;;;;;;5052653;28;20419;-70
2021/12/29 00:22:31;;;;;;;6.30;1.63;;;10.80;99.90;;;;;;5082934;28;20941;-70
2021/12/29 00:24:57;;;;;;;4.50;1.90;;;10.80;99.90;;;;;;5061732;28;20421;-71
2021/12/29 00:27:23;;;;;;;2.57;1.30;;;10.80;99.90;;;;;;5068392;28;20786;-70
2021/12/29 00:29:48;;;;;;;6.10;1.77;;;10.80;99.90;;;;;;5055516;28;20203;-70
2021/12/29 00:32:14;;;;;;;2.73;1.30;;;10.70;99.90;;;;;;5062989;28;20215;-70
2021/12/29 00:34:39;;;;;;;3.70;1.80;;;10.70;99.90;;;;;;5077868;28;20248;-69
2021/12/29 00:37:05;;;;;;;7.13;1.60;;;10.70;99.90;;;;;;5069886;28;20204;-70
2021/12/29 00:39:30;;;;;;;3.90;1.63;;;10.80;99.90;;;;;;5057761;28;20321;-70
2021/12/29 00:41:56;;;;;;;5.07;1.77;;;10.80;99.90;;;;;;5061568;28;20169;-69
2021/12/29 00:44:22;;;;;;;6.77;1.80;;;10.80;99.90;;;;;;5055450;28;20192;-70
2021/12/29 00:46:52;;;;;;;7.23;2.20;;;10.80;99.90;;;;;;5055911;28;20177;-70
2021/12/29 00:49:18;;;;;;;6.77;2.07;;;10.80;99.90;;;;;;5060904;28;20700;-70
2021/12/29 00:51:44;;;;;;;3.27;1.70;;;10.80;99.90;;;;;;5058252;28;20483;-70
2021/12/29 00:54:10;;;;;;;6.00;2.23;;;10.70;99.90;;;;;;5070205;28;20470;-70
2021/12/29 00:56:37;;;;;;;6.63;2.17;;;10.70;99.90;;;;;;5068972;28;20276;-70
2021/12/29 00:59:03;;;;;;;7.10;1.93;;;12.20;99.90;;;;;;5051560;28;20180;-70
2021/12/29 01:01:29;;;;;;;8.80;2.70;;;10.80;99.90;;;;;;5054671;28;20909;-71
2021/12/29 01:03:55;;;;;;;4.67;1.90;;;10.70;99.90;;;;;;5073387;28;20961;-71
2021/12/29 01:06:21;;;;;;;3.63;1.67;;;10.70;99.90;;;;;;5069523;28;20525;-71
2021/12/29 01:08:46;;;;;;;4.97;2.20;;;10.70;99.90;;;;;;5051371;28;20447;-70
2021/12/29 01:11:12;;;;;;;3.87;1.80;;;10.80;99.90;;;;;;5063567;28;20261;-70
2021/12/29 01:13:45;;;;;;;5.70;2.20;;;10.70;99.90;;;;;;5057083;28;20207;-70
2021/12/29 01:18:56;;;;;;;4.97;2.00;;;10.70;99.90;;;;;;5061448;28;20462;-71
2021/12/29 01:21:21;;;;;;;4.00;2.00;;;10.70;99.90;;;;;;5049469;28;20444;-71
2021/12/29 01:23:47;;;;;;;7.53;2.03;;;10.70;99.90;;;;;;5055098;28;20804;-69
2021/12/29 01:26:12;;;;;;;5.03;1.90;;;10.70;99.90;;;;;;5069579;28;20188;-70
2021/12/29 01:28:38;;;;;;;7.80;2.30;;;10.70;99.90;;;;;;5064719;28;20241;-70
2021/12/29 01:31:04;;;;;;;5.10;1.80;;;10.70;99.90;;;;;;5067684;28;20268;-70
2021/12/29 01:33:29;;;;;;;4.33;1.70;;;10.70;99.90;;;;;;5071795;28;20201;-71
2021/12/29 01:35:55;;;;;;;3.80;1.70;;;10.70;99.90;;;;;;5067672;28;20196;-70
2021/12/29 01:38:20;;;;;;;4.70;1.70;;;10.70;99.90;;;;;;5054452;28;20260;-70
2021/12/29 01:40:49;;;;;;;4.70;1.50;;;10.70;99.90;;;;;;5059893;28;20575;-70
2021/12/29 01:43:16;;;;;;;2.97;1.37;;;10.60;99.90;;;;;;5055963;28;20200;-70
2021/12/29 01:45:42;;;;;;;3.10;1.93;;;10.60;99.90;;;;;;5059936;28;20447;-71
2021/12/29 01:48:15;;;;;;;5.13;1.50;;;10.60;99.90;;;;;;5070585;28;20531;-70
2021/12/29 01:50:44;;;;;;;4.07;1.90;;;10.60;99.90;;;;;;5047667;28;20476;-70
2021/12/29 01:53:12;;;;;;;5.73;2.07;;;10.70;99.90;;;;;;5071398;28;20426;-70
2021/12/29 01:55:39;;;;;;;4.43;1.80;;;10.70;99.90;;;;;;5075840;28;20462;-70
2021/12/29 01:58:05;;;;;;;4.20;2.03;;;10.70;99.90;;;;;;5055527;28;20411;-70
2021/12/29 02:00:35;;;;;;;3.83;1.60;;;10.70;99.90;;;;;;5068673;28;20538;-70
2021/12/29 02:03:01;;;;;;;4.43;1.87;;;10.60;99.90;;;;;;5071013;28;20527;-70
2021/12/29 02:05:27;;;;;;;4.53;2.00;;;10.60;99.90;;;;;;5067982;28;20857;-70
2021/12/29 02:07:52;;;;;;;5.90;2.50;;;10.60;99.90;;;;;;5067827;28;20180;-70
2021/12/29 02:10:18;;;;;;;2.90;1.40;;;10.60;99.90;;;;;;5063361;28;20177;-70
2021/12/29 02:12:44;;;;;;;3.60;1.80;;;10.60;99.90;;;;;;5049196;28;20201;-70
2021/12/29 02:15:11;;;;;;;6.63;2.03;;;10.60;99.90;;;;;;5047794;28;20789;-70
2021/12/29 02:17:38;;;;;;;5.20;1.83;;;10.60;99.90;;;;;;5050111;28;20689;-70
2021/12/29 02:20:06;;;;;;;8.30;1.90;;;10.60;99.90;;;;;;5063449;28;20426;-70
2021/12/29 02:22:40;;;;;;;2.97;1.50;;;10.60;99.90;;;;;;5047120;28;20768;-70
2021/12/29 02:25:20;;;;;;;7.77;2.10;;;10.60;99.90;;;;;;5059929;28;20425;-70
2021/12/29 02:27:48;;;;;;;8.23;1.93;;;10.60;99.90;;;;;;5063216;28;20485;-70
2021/12/29 02:30:15;;;;;;;4.07;2.07;;;10.50;99.90;;;;;;5062196;28;20681;-70
2021/12/29 02:32:41;;;;;;;7.43;1.70;;;10.60;99.90;;;;;;5071063;28;20875;-70
2021/12/29 02:35:08;;;;;;;2.40;1.73;;;10.60;99.90;;;;;;5064598;28;20420;-70
2021/12/29 02:37:33;;;;;;;4.43;1.90;;;10.60;99.90;;;;;;5049139;28;20423;-70
2021/12/29 02:39:59;;;;;;;4.97;2.00;;;10.60;99.90;;;;;;5058167;28;20429;-70
2021/12/29 02:42:28;;;;;;;3.90;2.00;;;10.60;99.90;;;;;;5053993;28;20216;-70
2021/12/29 02:44:54;;;;;;;6.40;2.00;;;10.60;99.90;;;;;;5049613;28;20550;-70
2021/12/29 02:47:21;;;;;;;3.63;1.83;;;10.60;99.90;;;;;;5064186;28;20415;-70
2021/12/29 02:49:47;;;;;;;7.50;2.20;;;10.60;99.90;;;;;;5048659;28;20185;-70
2021/12/29 02:52:14;;;;;;;4.20;1.90;;;10.50;99.90;;;;;;5055675;28;20537;-70
2021/12/29 02:54:40;;;;;;;10.20;1.80;;;10.60;99.90;;;;;;5066016;28;20970;-70
2021/12/29 02:57:06;;;;;;;5.43;1.70;;;10.50;99.90;;;;;;5067610;28;21027;-69
2021/12/29 02:59:32;;;;;;;5.57;1.63;;;10.30;99.90;;;;;;5068626;28;20490;-70
2021/12/29 03:01:57;;;;;;;9.23;2.27;;;10.20;99.90;;;;;;5065971;28;20171;-70
2021/12/29 03:04:23;;;;;;;6.10;2.03;;;10.20;99.90;;;;;;5072674;28;20616;-70
2021/12/29 03:06:48;;;;;;;8.53;1.87;;;10.20;99.90;;;;;;5067132;28;20207;-70
2021/12/29 03:09:16;;;;;;;7.33;1.77;;;10.20;99.90;;;;;;5068032;28;20609;-70
2021/12/29 03:11:42;;;;;;;7.90;2.00;;;10.20;99.90;;;;;;5068259;28;20210;-70
2021/12/29 03:14:09;;;;;;;6.50;1.87;;;10.20;99.90;;;;;;5067487;28;20788;-70
2021/12/29 03:16:35;;;;;;;4.43;1.70;;;10.00;99.90;;;;;;5066598;28;20462;-72
2021/12/29 03:19:02;;;;;;;2.53;1.30;;;10.00;99.90;;;;;;5067208;28;20472;-70
2021/12/29 03:21:29;;;;;;;4.70;2.00;;;9.90;99.90;;;;;;5067353;28;20421;-70
2021/12/29 03:23:54;;;;;;;9.23;2.03;;;10.00;99.90;;;;;;5067889;28;20429;-70
2021/12/29 03:26:20;;;;;;;7.30;1.63;;;10.00;99.90;;;;;;5066672;28;20940;-70
2021/12/29 03:28:45;;;;;;;5.00;1.77;;;10.10;99.90;;;;;;5063878;28;20184;-70
2021/12/29 03:31:14;;;;;;;6.40;1.40;;;10.20;99.90;;;;;;5061505;28;20207;-70
2021/12/29 03:33:41;;;;;;;5.80;1.50;;;10.20;99.90;;;;;;5075302;28;20199;-70
2021/12/29 03:36:07;;;;;;;4.87;1.60;;;10.20;99.90;;;;;;5064618;28;20442;-70
2021/12/29 03:38:37;;;;;;;3.50;1.30;;;10.30;99.90;;;;;;5059389;28;20427;-70
2021/12/29 03:41:06;;;;;;;7.80;1.50;;;10.30;99.90;;;;;;5062419;28;20610;-70
2021/12/29 03:43:32;;;;;;;3.90;1.50;;;10.30;99.90;;;;;;5049759;28;20493;-70
2021/12/29 03:45:59;;;;;;;4.73;1.30;;;10.30;99.90;;;;;;5057058;28;20525;-70
2021/12/29 03:48:27;;;;;;;2.20;1.10;;;10.40;99.90;;;;;;5060398;28;20424;-70
2021/12/29 03:50:55;;;;;;;5.57;1.57;;;10.30;99.90;;;;;;5047904;28;20422;-69
2021/12/29 03:53:20;;;;;;;3.17;1.70;;;10.40;99.90;;;;;;5079536;28;20439;-69
2021/12/29 03:55:49;;;;;;;3.67;1.30;;;10.40;99.90;;;;;;5048880;28;20578;-70
2021/12/29 03:58:15;;;;;;;2.97;1.47;;;10.30;99.90;;;;;;5059924;28;20164;-70
2021/12/29 04:00:41;;;;;;;1.60;1.20;;;10.30;99.90;;;;;;5063422;28;20429;-70
2021/12/29 04:03:06;;;;;;;2.37;1.30;;;10.30;99.90;;;;;;5074893;28;20592;-69
2021/12/29 04:05:33;;;;;;;2.27;1.30;;;10.30;99.90;;;;;;5072441;28;20185;-70
2021/12/29 04:07:58;;;;;;;3.33;1.50;;;10.40;99.90;;;;;;5064814;28;20176;-70
2021/12/29 04:10:25;;;;;;;4.20;2.13;;;10.40;99.90;;;;;;5065996;28;20533;-70
2021/12/29 04:12:51;;;;;;;5.80;1.23;;;10.40;99.90;;;;;;5055040;28;20227;-70
2021/12/29 04:15:18;;;;;;;2.07;1.37;;;10.40;99.90;;;;;;5049174;28;20430;-70
2021/12/29 04:17:45;;;;;;;3.27;1.30;;;10.40;99.90;;;;;;5062963;28;20429;-70
2021/12/29 04:22:57;;;;;;;2.40;1.47;;;10.40;99.90;;;;;;5059343;28;20936;-70
2021/12/29 04:25:24;;;;;;;5.53;2.20;;;10.40;99.90;;;;;;5047468;28;20412;-70
2021/12/29 04:27:59;;;;;;;5.33;1.47;;;10.40;99.90;;;;;;5059073;28;20501;-70
2021/12/29 04:30:25;;;;;;;4.30;1.80;;;10.40;99.90;;;;;;5058354;28;20962;-70
2021/12/29 04:32:52;;;;;;;3.40;1.80;;;10.40;99.90;;;;;;5069076;28;20426;-70
2021/12/29 04:35:21;;;;;;;4.30;1.50;;;10.30;99.90;;;;;;5075016;28;20422;-70
2021/12/29 04:37:47;;;;;;;4.73;1.83;;;10.30;99.90;;;;;;5057068;28;20524;-70
2021/12/29 04:40:14;;;;;;;2.83;1.30;;;10.30;99.90;;;;;;5053232;28;20968;-70
2021/12/29 04:42:39;;;;;;;3.00;1.13;;;10.30;99.90;;;;;;5061682;28;20468;-70
2021/12/29 04:45:06;;;;;;;3.90;1.50;;;10.20;99.90;;;;;;5053191;28;20586;-70
2021/12/29 04:47:32;;;;;;;3.70;1.50;;;10.10;99.90;;;;;;5062113;28;20172;-70
2021/12/29 04:50:00;;;;;;;1.40;1.10;;;10.00;99.90;;;;;;5060511;28;20433;-70
2021/12/29 04:52:28;;;;;;;3.63;1.30;;;9.90;99.90;;;;;;5046547;28;20193;-70
2021/12/29 04:54:54;;;;;;;7.20;1.60;;;9.90;99.90;;;;;;5060536;28;20423;-70
2021/12/29 04:57:19;;;;;;;3.10;1.27;;;9.90;99.90;;;;;;5066208;28;20458;-70
2021/12/29 04:59:45;;;;;;;4.03;1.30;;;10.00;99.90;;;;;;5066964;28;20247;-71
2021/12/29 05:02:11;;;;;;;3.63;1.73;;;10.10;99.90;;;;;;5065171;28;20261;-70
2021/12/29 05:04:45;;;;;;;2.80;2.30;;;10.10;99.90;;;;;;5081931;28;20425;-70
2021/12/29 05:09:57;;;;;;;2.23;1.43;;;10.10;99.90;;;;;;5071014;28;20421;-70
2021/12/29 05:12:23;;;;;;;2.77;1.67;;;10.10;99.90;;;;;;5068714;28;20434;-70
2021/12/29 05:14:48;;;;;;;4.30;1.80;;;10.10;99.90;;;;;;5070674;28;20793;-70
2021/12/29 05:17:14;;;;;;;2.77;1.50;;;10.00;99.90;;;;;;5070049;28;20579;-70
2021/12/29 05:19:40;;;;;;;2.93;1.20;;;9.90;99.90;;;;;;5070250;28;20508;-70
2021/12/29 05:22:05;;;;;;;3.50;1.70;;;9.90;99.90;;;;;;5055615;28;20224;-71
2021/12/29 05:24:31;;;;;;;3.27;1.30;;;9.90;99.90;;;;;;5054938;28;20252;-70
2021/12/29 05:26:58;;;;;;;1.50;1.20;;;10.00;99.90;;;;;;5061619;28;20251;-69
2021/12/29 05:29:25;;;;;;;2.20;1.40;;;10.00;99.90;;;;;;5068780;28;20694;-70
2021/12/29 05:31:50;;;;;;;1.57;1.20;;;10.10;99.90;;;;;;5063619;28;20478;-70
2021/12/29 05:34:16;;;;;;;4.20;1.40;;;10.10;99.90;;;;;;5082390;28;20937;-70
2021/12/29 05:36:42;;;;;;;2.50;1.30;;;10.20;99.90;;;;;;5068083;28;20207;-70
2021/12/29 05:39:08;;;;;;;1.83;1.00;;;10.20;99.90;;;;;;5058973;28;20184;-70
2021/12/29 05:41:33;;;;;;;2.77;1.57;;;10.20;99.90;;;;;;5055583;28;20177;-69
2021/12/29 05:43:59;;;;;;;5.00;1.30;;;10.20;99.90;;;;;;5060050;28;20459;-70
2021/12/29 05:46:24;;;;;;;1.50;1.23;;;10.20;99.90;;;;;;5062143;28;20181;-70
2021/12/29 05:48:50;;;;;;;3.90;1.20;;;10.20;99.90;;;;;;5054183;28;20173;-70
2021/12/29 05:51:16;;;;;;;2.30;1.20;;;10.20;99.90;;;;;;5054105;28;20189;-70
2021/12/29 05:53:42;;;;;;;2.80;1.10;;;10.20;99.90;;;;;;5069650;28;20753;-69
2021/12/29 05:56:08;;;;;;;3.17;1.30;;;10.20;99.90;;;;;;5056862;28;20278;-70
2021/12/29 05:58:35;;;;;;;2.47;1.20;;;10.20;99.90;;;;;;5054690;28;20869;-70
2021/12/29 06:01:00;;;;;;;3.73;1.27;;;10.20;99.90;;;;;;5078120;28;20534;-70
2021/12/29 06:03:26;;;;;;;2.10;1.17;;;10.30;99.90;;;;;;5074214;28;20458;-70
2021/12/29 06:05:51;;;;;;;3.60;1.20;;;12.90;99.90;;;;;;5073635;28;20477;-70
2021/12/29 06:08:17;;;;;;;4.20;1.20;;;10.30;99.90;;;;;;5068256;28;20176;-70
2021/12/29 06:10:43;;;;;;;2.70;1.30;;;10.30;99.90;;;;;;5063595;28;20208;-70
2021/12/29 06:13:08;;;;;;;2.57;1.30;;;10.30;99.90;;;;;;5050892;28;20232;-70
2021/12/29 06:15:34;;;;;;;2.30;1.33;;;10.30;99.90;;;;;;5058217;28;20273;-70
2021/12/29 06:17:59;;;;;;;2.63;1.40;;;10.30;99.90;;;;;;5066847;28;20179;-70
2021/12/29 06:20:25;;;;;;;2.53;1.47;;;10.30;99.90;;;;;;5051658;28;20173;-70
2021/12/29 06:22:50;;;;;;;2.23;1.20;;;10.30;99.90;;;;;;5058321;28;20193;-69
2021/12/29 06:25:18;;;;;;;3.03;1.40;;;10.20;99.90;;;;;;5068459;28;20295;-70
2021/12/29 06:27:44;;;;;;;2.30;1.40;;;10.30;99.90;;;;;;5065899;28;20255;-70
2021/12/29 06:30:12;;;;;;;2.20;1.33;;;10.20;99.90;;;;;;5068905;28;20455;-70
2021/12/29 06:32:38;;;;;;;1.47;1.20;;;10.20;99.90;;;;;;5065226;28;20439;-70
2021/12/29 06:35:06;;;;;;;2.10;1.07;;;10.10;99.90;;;;;;5069894;28;20422;-70
2021/12/29 06:37:32;;;;;;;1.67;1.20;;;10.30;99.90;;;;;;5063191;28;20475;-70
2021/12/29 06:39:58;;;;;;;2.70;1.30;;;10.20;99.90;;;;;;5049099;28;20447;-70
2021/12/29 06:42:24;;;;;;;2.50;1.47;;;10.20;99.90;;;;;;5053245;28;20541;-70
2021/12/29 06:44:49;;;;;;;4.47;1.63;;;10.20;99.90;;;;;;5049237;28;20531;-69
2021/12/29 06:47:16;;;;;;;2.07;1.80;;;10.20;99.90;;;;;;5065816;28;20462;-70
2021/12/29 06:49:42;;;;;;;3.63;1.80;;;10.20;99.90;;;;;;5063596;28;20195;-69
2021/12/29 06:52:09;;;;;;;4.67;1.90;;;10.10;99.90;;;;;;5059874;28;20450;-70
2021/12/29 06:54:35;;;;;;;4.57;2.03;;;10.10;99.90;;;;;;5068141;28;20419;-70
2021/12/29 06:57:01;;;;;;;2.50;1.97;;;10.10;99.90;;;;;;5067223;28;20990;-69
2021/12/29 06:59:26;;;;;;;2.20;2.00;;;10.10;99.90;;;;;;5067408;28;20411;-70
2021/12/29 07:01:52;;;;;;;3.67;2.40;;;10.10;99.90;;;;;;5063984;28;20270;-69
2021/12/29 07:04:18;;;;;;;4.87;2.40;;;10.10;99.90;;;;;;5079020;28;20758;-70
2021/12/29 07:06:44;;;;;;;3.40;1.83;;;10.10;99.90;;;;;;5067104;28;20518;-69
2021/12/29 07:09:10;;;;;;;3.97;2.03;;;10.10;99.90;;;;;;5068084;28;20173;-70
2021/12/29 07:11:37;;;;;;;2.63;2.10;;;10.20;99.90;;;;;;5064359;28;20512;-70
2021/12/29 07:14:04;;;;;;;2.70;1.80;;;10.20;99.90;;;;;;5046327;28;20228;-70
2021/12/29 07:16:31;;;;;;;3.13;1.83;;;10.20;99.90;;;;;;5048168;28;20479;-70
2021/12/29 07:18:57;;;;;;;1.93;1.83;;;10.20;99.90;;;;;;5048009;28;20447;-70
2021/12/29 07:21:23;;;;;;;2.30;2.00;;;10.20;99.90;;;;;;5047780;28;20439;-70
2021/12/29 07:23:50;;;;;;;4.90;2.10;;;10.20;99.90;;;;;;5047961;28;20326;-69
2021/12/29 07:26:15;;;;;;;3.33;2.20;;;10.10;99.90;;;;;;5055767;28;20434;-70
2021/12/29 07:28:41;;;;;;;6.70;1.83;;;10.30;99.90;;;;;;5063344;28;20432;-69
2021/12/29 07:31:06;;;;;;;4.73;3.20;;;10.20;99.90;;;;;;5057765;28;20267;-70
2021/12/29 07:33:33;;;;;;;3.20;2.03;;;10.20;99.90;;;;;;5062620;28;20696;-70
2021/12/29 07:35:58;;;;;;;2.53;1.57;;;10.20;99.90;;;;;;5048456;28;20254;-71
2021/12/29 07:38:24;;;;;;;3.90;1.83;;;10.20;99.90;;;;;;5060633;28;20531;-71
2021/12/29 07:40:50;;;;;;;3.30;1.90;;;10.20;99.90;;;;;;5065268;28;20173;-70
2021/12/29 07:43:15;;;;;;;2.67;1.63;;;10.20;99.90;;;;;;5048671;28;20200;-71
2021/12/29 07:45:42;;;;;;;2.00;1.67;;;10.20;99.90;;;;;;5059188;28;20196;-71
2021/12/29 15:33:04;;;;;;;5.47;2.90;;;9.70;99.90;;;;;;5063036;28;20652;-69
2021/12/29 15:35:31;;;;;;;9.10;3.23;;;9.80;99.90;;;;;;5031254;28;20909;-69
2021/12/29 15:37:57;;;;;;;5.70;3.30;;;9.80;99.90;;;;;;5024957;28;20174;-70
2021/12/29 15:40:24;;;;;;;12.10;7.63;;;9.90;99.90;;;;;;5026206;28;20417;-69
2021/12/29 15:42:50;;;;;;;12.03;7.63;;;10.00;99.90;;;;;;5026086;28;20192;-70
2021/12/29 15:45:17;;;;;;;8.90;4.33;;;10.10;99.90;;;;;;5035528;28;20432;-70
2021/12/29 15:47:43;;;;;;;6.87;4.43;;;10.20;99.90;;;;;;5027672;28;20953;-70
2021/12/29 15:50:12;;;;;;;6.87;4.67;;;10.30;99.90;;;;;;5031957;28;20438;-69
2021/12/29 15:52:38;;;;;;;8.63;4.10;;;10.20;99.90;;;;;;5041829;28;20216;-70
2021/12/29 15:55:05;;;;;;;7.00;4.30;;;10.20;99.90;;;;;;5043204;28;20507;-70
2021/12/29 15:57:31;;;;;;;13.57;5.10;;;10.20;99.90;;;;;;5043162;28;20249;-69
2021/12/29 15:59:56;;;;;;;4.37;3.47;;;10.20;99.90;;;;;;5042348;28;20786;-70
2021/12/29 16:02:22;;;;;;;8.30;3.90;;;10.20;99.90;;;;;;5037122;28;20262;-69
2021/12/29 16:04:49;;;;;;;8.83;3.40;;;10.20;99.90;;;;;;5048147;28;20432;-70
2021/12/29 16:07:15;;;;;;;5.10;3.00;;;10.10;99.90;;;;;;5039270;28;20176;-70
2021/12/29 16:09:44;;;;;;;6.30;3.30;;;10.10;99.90;;;;;;5031311;28;20787;-69
2021/12/29 16:12:09;;;;;;;15.67;6.50;;;10.10;99.90;;;;;;5038243;28;20560;-70
2021/12/29 16:14:35;;;;;;;16.33;7.20;;;10.10;99.90;;;;;;5044040;28;20415;-70
2021/12/29 16:17:00;;;;;;;7.93;5.13;;;10.10;99.90;;;;;;5044018;28;20640;-70
2021/12/29 16:19:28;;;;;;;8.33;3.50;;;10.10;99.90;;;;;;5043736;28;20267;-69
2021/12/29 16:21:55;;;;;;;10.33;4.90;;;10.10;99.90;;;;;;5042981;28;20185;-70
2021/12/29 16:24:20;;;;;;;13.73;5.30;;;10.00;99.90;;;;;;5042906;28;20428;-70
2021/12/29 16:26:46;;;;;;;14.37;6.57;;;10.00;99.90;;;;;;5023893;28;20417;-70
2021/12/29 16:29:11;;;;;;;6.03;3.27;;;10.00;99.90;;;;;;5024324;28;20166;-70
2021/12/29 16:31:37;;;;;;;10.90;5.47;;;10.00;99.90;;;;;;5033468;28;20202;-70
2021/12/29 16:34:03;;;;;;;10.73;7.20;;;10.00;99.90;;;;;;5055192;28;20200;-70
2021/12/29 16:36:29;;;;;;;11.13;6.30;;;10.00;99.90;;;;;;5052984;28;20743;-70
2021/12/29 16:38:56;;;;;;;8.73;4.55;;;10.00;99.90;;;;;;5042695;28;20412;-70
2021/12/29 16:41:22;;;;;;;12.73;5.83;;;10.00;99.90;;;;;;5041671;28;20184;-70
2021/12/29 16:43:47;;;;;;;12.00;5.70;;;10.00;99.90;;;;;;5027833;28;20440;-71
2021/12/29 16:46:13;;;;;;;8.93;4.60;;;10.00;99.90;;;;;;5018486;28;20421;-71
2021/12/29 16:48:38;;;;;;;11.60;4.60;;;10.00;99.90;;;;;;5017244;28;20178;-70
2021/12/29 16:51:05;;;;;;;10.83;5.83;;;10.00;99.90;;;;;;5015944;28;20290;-69
2021/12/29 16:53:30;;;;;;;13.53;7.37;;;10.00;99.90;;;;;;5011790;28;20446;-70
2021/12/29 16:55:56;;;;;;;13.83;8.17;;;10.00;99.90;;;;;;5024172;28;21039;-70
2021/12/29 16:58:22;;;;;;;10.67;5.90;;;10.20;99.90;;;;;;5018207;28;20261;-72
2021/12/29 17:00:49;;;;;;;7.40;4.93;;;10.10;99.90;;;;;;5025637;28;20174;-71
2021/12/29 17:03:15;;;;;;;11.20;6.00;;;10.00;99.90;;;;;;5033798;28;20810;-71
2021/12/29 17:05:41;;;;;;;11.77;6.17;;;10.00;99.90;;;;;;5035179;28;20471;-70
2021/12/29 17:08:07;;;;;;;14.40;5.30;;;9.90;99.90;;;;;;5016825;28;20444;-71
2021/12/29 17:10:32;;;;;;;16.10;6.20;;;9.90;99.90;;;;;;5011323;28;20186;-73
2021/12/29 17:12:59;;;;;;;6.00;3.90;;;9.90;99.90;;;;;;5029311;28;20206;-71
2021/12/29 17:15:24;;;;;;;9.70;5.73;;;9.90;99.90;;;;;;5030092;28;20170;-71
2021/12/29 17:17:50;;;;;;;10.20;5.17;;;9.60;99.90;;;;;;5022575;28;20421;-71
2021/12/29 17:20:17;;;;;;;9.50;5.20;;;9.90;99.90;;;;;;5009466;28;20171;-71
2021/12/29 17:22:44;;;;;;;7.53;5.63;;;9.90;99.90;;;;;;5027865;28;20444;-71
2021/12/29 17:25:12;;;;;;;9.30;5.70;;;9.90;99.90;;;;;;5026386;28;20444;-71
2021/12/29 17:27:39;;;;;;;7.50;5.30;;;9.90;99.90;;;;;;5025391;28;20416;-70
2021/12/29 17:30:08;;;;;;;9.10;5.00;;;9.90;99.90;;;;;;5026866;28;20983;-70
2021/12/29 17:32:34;;;;;;;7.20;4.13;;;9.90;99.90;;;;;;5021085;28;20468;-70
2021/12/29 17:35:00;;;;;;;8.23;5.20;;;9.90;99.90;;;;;;5041515;28;20814;-71
2021/12/29 17:37:26;;;;;;;9.90;6.10;;;9.90;99.90;;;;;;5019538;28;20454;-70
2021/12/29 17:39:52;;;;;;;16.60;9.67;;;9.90;99.90;;;;;;5027196;28;20181;-71
2021/12/29 17:42:17;;;;;;;14.80;8.70;;;9.90;99.90;;;;;;5018253;28;20214;-70
2021/12/29 17:44:43;;;;;;;17.10;9.77;;;9.90;99.90;;;;;;5025624;28;20543;-71
2021/12/29 17:47:08;;;;;;;14.50;8.33;;;9.90;99.90;;;;;;5013646;28;20221;-71
2021/12/29 17:49:34;;;;;;;13.50;8.10;;;9.90;99.90;;;;;;5025145;28;20668;-70
2021/12/29 17:52:00;;;;;;;10.30;7.57;;;9.90;99.90;;;;;;5021387;28;20209;-71
2021/12/29 17:54:27;;;;;;;10.33;7.03;;;9.90;99.90;;;;;;5016078;28;20181;-73
2021/12/29 17:56:53;;;;;;;12.97;8.10;;;10.00;99.90;;;;;;5014005;28;20588;-69
2021/12/29 17:59:19;;;;;;;11.80;7.07;;;10.00;99.90;;;;;;5011392;28;20425;-70
2021/12/29 18:01:45;;;;;;;7.57;5.90;;;9.90;99.90;;;;;;5016062;28;20435;-69
2021/12/29 18:04:11;;;;;;;16.83;9.40;;;9.90;99.90;;;;;;5037047;28;20252;-70
2021/12/29 18:06:36;;;;;;;22.60;12.63;;;10.00;99.90;;;;;;5023874;28;20632;-70
2021/12/29 18:09:03;;;;;;;14.00;9.50;;;10.00;99.90;;;;;;5025529;28;20166;-70
2021/12/29 18:11:29;;;;;;;13.30;8.57;;;10.00;99.90;;;;;;5027091;28;20327;-69
2021/12/29 18:13:55;;;;;;;14.33;8.47;;;10.00;99.90;;;;;;5021261;28;20874;-70
2021/12/29 18:16:20;;;;;;;21.00;12.70;;;10.00;99.90;;;;;;5009407;28;20201;-70
2021/12/29 18:18:46;;;;;;;15.03;9.60;;;10.00;99.90;;;;;;5012054;28;20556;-71
2021/12/29 18:21:13;;;;;;;15.27;8.40;;;10.00;99.90;;;;;;5026045;28;20259;-71
2021/12/29 18:23:40;;;;;;;12.20;8.43;;;10.10;99.90;;;;;;5025189;28;20226;-70
2021/12/29 18:26:09;;;;;;;11.47;8.70;;;10.00;99.90;;;;;;5013235;28;20519;-70
2021/12/29 18:28:39;;;;;;;9.43;7.60;;;10.00;99.90;;;;;;5025934;28;20422;-70
2021/12/29 18:31:05;;;;;;;13.83;10.20;;;10.00;99.90;;;;;;5021951;28;20461;-69
2021/12/29 18:33:31;;;;;;;21.13;11.87;;;10.00;99.90;;;;;;5027951;28;20458;-71
2021/12/29 18:35:56;;;;;;;15.00;10.00;;;10.00;99.90;;;;;;5018553;28;20260;-70
2021/12/29 18:38:22;;;;;;;13.30;9.10;;;10.10;99.90;;;;;;5008036;28;20175;-71
2021/12/29 18:40:48;;;;;;;12.50;7.83;;;10.10;99.90;;;;;;5012139;28;20205;-71
2021/12/29 18:43:13;;;;;;;10.40;7.83;;;10.10;99.90;;;;;;5020116;28;20206;-70
2021/12/29 18:45:40;;;;;;;11.30;8.07;;;10.10;99.90;;;;;;5005992;28;20171;-70
2021/12/29 18:48:06;;;;;;;10.60;7.30;;;10.20;99.90;;;;;;5019586;28;20252;-70
2021/12/29 18:50:32;;;;;;;12.50;9.10;;;10.10;99.90;;;;;;5026744;28;20850;-69
2021/12/29 18:52:58;;;;;;;8.47;5.87;;;10.20;99.90;;;;;;5024743;28;20499;-69
2021/12/29 18:55:25;;;;;;;6.70;5.67;;;10.20;99.90;;;;;;5026627;28;20571;-70
2021/12/29 18:57:51;;;;;;;7.23;5.50;;;10.30;99.90;;;;;;5017396;28;20174;-69
2021/12/29 19:00:18;;;;;;;5.80;5.20;;;10.30;99.90;;;;;;5013211;28;20431;-70
2021/12/29 19:02:45;;;;;;;6.00;4.53;;;10.40;99.90;;;;;;5029083;28;20432;-69
2021/12/29 19:05:16;;;;;;;5.63;5.03;;;10.40;99.90;;;;;;5038680;28;20423;-70
2021/12/29 19:07:45;;;;;;;5.53;4.80;;;10.50;99.90;;;;;;5014183;28;20422;-70
2021/12/29 19:10:10;;;;;;;6.10;5.50;;;10.50;99.90;;;;;;5008942;28;20569;-69
2021/12/29 19:12:37;;;;;;;8.80;6.07;;;10.50;99.90;;;;;;5008466;28;20465;-69
2021/12/29 19:15:05;;;;;;;5.50;5.00;;;10.60;99.90;;;;;;5009615;28;20171;-69
2021/12/29 19:17:35;;;;;;;4.73;4.33;;;10.60;99.90;;;;;;5008189;28;20428;-69
2021/12/29 19:20:03;;;;;;;5.73;4.27;;;10.60;99.90;;;;;;5011620;28;20780;-70
2021/12/29 19:22:28;;;;;;;6.37;5.30;;;10.60;99.90;;;;;;5007323;28;20421;-70
2021/12/29 19:24:54;;;;;;;6.40;4.40;;;10.70;99.90;;;;;;5020107;28;20494;-70
2021/12/29 19:27:19;;;;;;;5.27;4.77;;;10.70;99.90;;;;;;5026358;28;20183;-70
2021/12/29 19:29:47;;;;;;;5.60;4.50;;;10.70;99.90;;;;;;5025822;28;20260;-69
2021/12/29 19:32:13;;;;;;;5.47;4.40;;;10.80;99.90;;;;;;5023174;28;20198;-70
2021/12/29 19:34:40;;;;;;;4.30;3.90;;;10.80;99.90;;;;;;5020920;28;20416;-70
2021/12/29 19:37:09;;;;;;;5.60;4.87;;;10.80;99.90;;;;;;5026942;28;20169;-69
2021/12/29 19:39:37;;;;;;;6.10;5.27;;;10.80;99.90;;;;;;5024657;28;20819;-70
2021/12/29 19:42:07;;;;;;;6.03;5.10;;;10.90;99.90;;;;;;5016707;28;20452;-70
2021/12/29 19:44:32;;;;;;;5.73;4.80;;;10.90;99.90;;;;;;5018530;28;20917;-70
2021/12/29 19:46:59;;;;;;;4.70;4.20;;;11.00;99.90;;;;;;5027382;28;20431;-70
2021/12/29 19:49:25;;;;;;;4.73;3.60;;;11.00;99.90;;;;;;5021340;28;20203;-70
2021/12/29 19:51:51;;;;;;;7.27;4.33;;;11.00;99.90;;;;;;5022391;28;20846;-71
2021/12/29 19:54:18;;;;;;;5.47;4.37;;;11.00;99.90;;;;;;5019332;28;20852;-70
2021/12/29 19:56:44;;;;;;;7.23;6.03;;;11.00;99.90;;;;;;5020011;28;20428;-70
2021/12/29 19:59:10;;;;;;;6.43;4.90;;;11.10;99.90;;;;;;5011805;28;20425;-70
2021/12/29 20:01:37;;;;;;;5.97;4.50;;;11.10;99.90;;;;;;5013472;28;20484;-70
2021/12/29 20:04:04;;;;;;;7.10;4.53;;;11.10;99.90;;;;;;5038480;28;20645;-71
2021/12/29 20:06:30;;;;;;;7.00;3.77;;;11.30;99.90;;;;;;5024991;28;20428;-70
2021/12/29 20:08:55;;;;;;;5.53;4.80;;;11.20;99.90;;;;;;5027203;28;20424;-70
2021/12/29 20:11:22;;;;;;;6.90;4.20;;;11.20;99.90;;;;;;5023013;28;20504;-70
2021/12/29 20:13:48;;;;;;;5.70;3.70;;;11.20;99.90;;;;;;5006659;28;20294;-71
2021/12/29 20:16:15;;;;;;;4.53;4.13;;;11.20;99.90;;;;;;5007886;28;20784;-70
2021/12/29 20:18:41;;;;;;;4.47;4.07;;;11.20;99.90;;;;;;5009939;28;20470;-71
2021/12/29 20:21:09;;;;;;;5.30;4.80;;;11.30;99.90;;;;;;5008752;28;20418;-70
2021/12/29 20:23:36;;;;;;;4.70;4.30;;;11.30;99.90;;;;;;5014221;28;20298;-70
2021/12/29 20:26:02;;;;;;;5.17;4.50;;;11.30;99.90;;;;;;5017150;28;20425;-71
2021/12/29 20:28:28;;;;;;;5.50;4.47;;;11.30;99.90;;;;;;5012811;28;20421;-70
2021/12/29 20:30:54;;;;;;;4.97;4.40;;;11.30;99.90;;;;;;5015544;28;21005;-70
2021/12/29 20:33:22;;;;;;;5.30;4.37;;;11.40;99.90;;;;;;5035683;28;20698;-69